sensor_id;sensor_type;location;lat;lon;timestamp;temperature;humidity
30572;DHT22;17348;50.948;10.696;2023-04-25T00:00:19;7.00;99.90
30572;DHT22;17348;50.948;10.696;2023-04-25T00:03:22;7.00;99.90
30572;DHT22;17348;50.948;10.696;2023-04-25T00:06:26;6.90;99.90
30572;DHT22;17348;50.948;10.696;2023-04-25T00:09:28;6.90;99.90
30572;DHT22;17348;50.948;10.696;2023-04-25T00:12:31;6.80;99.90
30572;DHT22;17348;50.948;10.696;2023-04-25T00:15:34;6.80;99.90
30572;DHT22;17348;50.948;10.696;2023-04-25T00:18:41;6.80;99.90
30572;DHT22;17348;50.948;10.696;2023-04-25T00:21:43;6.80;99.90
30572;DHT22;17348;50.948;10.696;2023-04-25T00:24:47;6.70;99.90
30572;DHT22;17348;50.948;10.696;2023-04-25T00:27:49;6.70;99.90
30572;DHT22;17348;50.948;10.696;2023-04-25T00:30:51;6.60;99.90
30572;DHT22;17348;50.948;10.696;2023-04-25T00:33:55;6.60;99.90
30572;DHT22;17348;50.948;10.696;2023-04-25T00:36:57;6.60;99.90
30572;DHT22;17348;50.948;10.696;2023-04-25T00:40:02;6.60;99.90
30572;DHT22;17348;50.948;10.696;2023-04-25T00:43:07;6.50;99.90
30572;DHT22;17348;50.948;10.696;2023-04-25T00:46:09;6.50;99.90
30572;DHT22;17348;50.948;10.696;2023-04-25T00:49:14;6.50;99.90
30572;DHT22;17348;50.948;10.696;2023-04-25T00:52:17;6.40;99.90
30572;DHT22;17348;50.948;10.696;2023-04-25T00:55:20;6.40;99.90
30572;DHT22;17348;50.948;10.696;2023-04-25T00:58:22;6.40;99.90
30572;DHT22;17348;50.948;10.696;2023-04-25T01:01:25;6.40;99.90
30572;DHT22;17348;50.948;10.696;2023-04-25T01:04:29;6.40;99.90
30572;DHT22;17348;50.948;10.696;2023-04-25T01:07:31;6.40;99.90
30572;DHT22;17348;50.948;10.696;2023-04-25T01:10:33;6.40;99.90
30572;DHT22;17348;50.948;10.696;2023-04-25T01:13:36;6.40;99.90
30572;DHT22;17348;50.948;10.696;2023-04-25T01:16:39;6.30;99.90
30572;DHT22;17348;50.948;10.696;2023-04-25T01:19:43;6.30;99.90
30572;DHT22;17348;50.948;10.696;2023-04-25T01:22:48;6.30;99.90
30572;DHT22;17348;50.948;10.696;2023-04-25T01:25:51;6.30;99.90
30572;DHT22;17348;50.948;10.696;2023-04-25T01:28:53;6.30;99.90
30572;DHT22;17348;50.948;10.696;2023-04-25T01:31:56;6.30;99.90
30572;DHT22;17348;50.948;10.696;2023-04-25T01:35:00;6.30;99.90
30572;DHT22;17348;50.948;10.696;2023-04-25T01:38:04;6.30;99.90
30572;DHT22;17348;50.948;10.696;2023-04-25T01:41:07;6.30;99.90
30572;DHT22;17348;50.948;10.696;2023-04-25T01:44:10;6.20;99.90
30572;DHT22;17348;50.948;10.696;2023-04-25T01:47:12;6.30;99.90
30572;DHT22;17348;50.948;10.696;2023-04-25T01:50:15;6.20;99.90
30572;DHT22;17348;50.948;10.696;2023-04-25T01:53:19;6.20;99.90
30572;DHT22;17348;50.948;10.696;2023-04-25T01:56:21;6.20;99.90
30572;DHT22;17348;50.948;10.696;2023-04-25T01:59:24;6.20;99.90
30572;DHT22;17348;50.948;10.696;2023-04-25T02:02:26;6.20;99.90
30572;DHT22;17348;50.948;10.696;2023-04-25T02:05:28;6.20;99.90
30572;DHT22;17348;50.948;10.696;2023-04-25T02:08:37;6.20;99.90
30572;DHT22;17348;50.948;10.696;2023-04-25T02:11:39;6.20;99.90
30572;DHT22;17348;50.948;10.696;2023-04-25T02:14:42;6.10;99.90
30572;DHT22;17348;50.948;10.696;2023-04-25T02:17:44;6.10;99.90
30572;DHT22;17348;50.948;10.696;2023-04-25T02:20:47;6.10;99.90
30572;DHT22;17348;50.948;10.696;2023-04-25T02:23:50;6.10;99.90
30572;DHT22;17348;50.948;10.696;2023-04-25T02:26:53;6.10;99.90
30572;DHT22;17348;50.948;10.696;2023-04-25T02:29:56;6.10;99.90
30572;DHT22;17348;50.948;10.696;2023-04-25T02:32:59;6.00;99.90
30572;DHT22;17348;50.948;10.696;2023-04-25T02:36:01;6.00;99.90
30572;DHT22;17348;50.948;10.696;2023-04-25T02:39:05;6.00;99.90
30572;DHT22;17348;50.948;10.696;2023-04-25T02:42:08;5.90;99.90
30572;DHT22;17348;50.948;10.696;2023-04-25T02:45:10;5.90;99.90
30572;DHT22;17348;50.948;10.696;2023-04-25T02:48:13;5.80;99.90
30572;DHT22;17348;50.948;10.696;2023-04-25T02:51:15;5.80;99.90
30572;DHT22;17348;50.948;10.696;2023-04-25T02:54:19;5.80;99.90
30572;DHT22;17348;50.948;10.696;2023-04-25T02:57:21;5.70;99.90
30572;DHT22;17348;50.948;10.696;2023-04-25T03:00:24;5.60;99.90
30572;DHT22;17348;50.948;10.696;2023-04-25T03:03:26;5.70;99.90
30572;DHT22;17348;50.948;10.696;2023-04-25T03:06:28;5.60;99.90
30572;DHT22;17348;50.948;10.696;2023-04-25T03:09:33;5.50;99.90
30572;DHT22;17348;50.948;10.696;2023-04-25T03:12:35;5.50;99.90
30572;DHT22;17348;50.948;10.696;2023-04-25T03:15:38;5.50;99.90
30572;DHT22;17348;50.948;10.696;2023-04-25T03:18:40;5.50;99.90
30572;DHT22;17348;50.948;10.696;2023-04-25T03:21:43;5.40;99.90
30572;DHT22;17348;50.948;10.696;2023-04-25T03:24:46;5.40;99.90
30572;DHT22;17348;50.948;10.696;2023-04-25T03:27:49;5.40;99.90
30572;DHT22;17348;50.948;10.696;2023-04-25T03:30:51;5.40;99.90
30572;DHT22;17348;50.948;10.696;2023-04-25T03:33:55;5.40;99.90
30572;DHT22;17348;50.948;10.696;2023-04-25T03:36:57;5.40;99.90
30572;DHT22;17348;50.948;10.696;2023-04-25T03:40:01;5.40;99.90
30572;DHT22;17348;50.948;10.696;2023-04-25T03:43:03;5.40;99.90
30572;DHT22;17348;50.948;10.696;2023-04-25T03:46:05;5.40;99.90
30572;DHT22;17348;50.948;10.696;2023-04-25T03:49:08;5.40;99.90
30572;DHT22;17348;50.948;10.696;2023-04-25T03:52:10;5.30;99.90
30572;DHT22;17348;50.948;10.696;2023-04-25T03:55:14;5.30;99.90
30572;DHT22;17348;50.948;10.696;2023-04-25T03:58:16;5.30;99.90
30572;DHT22;17348;50.948;10.696;2023-04-25T04:01:19;5.30;99.90
30572;DHT22;17348;50.948;10.696;2023-04-25T04:04:21;5.30;99.90
30572;DHT22;17348;50.948;10.696;2023-04-25T04:07:24;5.30;99.90
30572;DHT22;17348;50.948;10.696;2023-04-25T04:10:27;5.30;99.90
30572;DHT22;17348;50.948;10.696;2023-04-25T04:13:30;5.30;99.90
30572;DHT22;17348;50.948;10.696;2023-04-25T04:16:32;5.30;99.90
30572;DHT22;17348;50.948;10.696;2023-04-25T04:19:35;5.40;99.90
30572;DHT22;17348;50.948;10.696;2023-04-25T04:22:37;5.40;99.90
30572;DHT22;17348;50.948;10.696;2023-04-25T04:25:41;5.50;99.90
30572;DHT22;17348;50.948;10.696;2023-04-25T04:28:44;5.50;99.90
30572;DHT22;17348;50.948;10.696;2023-04-25T04:31:47;5.50;99.90
30572;DHT22;17348;50.948;10.696;2023-04-25T04:34:50;5.60;99.90
30572;DHT22;17348;50.948;10.696;2023-04-25T04:37:53;5.70;99.90
30572;DHT22;17348;50.948;10.696;2023-04-25T04:40:57;5.80;99.90
30572;DHT22;17348;50.948;10.696;2023-04-25T04:44:00;6.30;99.90
30572;DHT22;17348;50.948;10.696;2023-04-25T04:47:04;6.90;99.90
30572;DHT22;17348;50.948;10.696;2023-04-25T04:50:08;7.70;99.90
30572;DHT22;17348;50.948;10.696;2023-04-25T04:53:10;8.30;99.90
30572;DHT22;17348;50.948;10.696;2023-04-25T04:56:14;8.50;99.90
30572;DHT22;17348;50.948;10.696;2023-04-25T04:59:16;8.50;99.90
30572;DHT22;17348;50.948;10.696;2023-04-25T05:02:19;8.50;99.90
30572;DHT22;17348;50.948;10.696;2023-04-25T05:05:21;8.30;99.90
30572;DHT22;17348;50.948;10.696;2023-04-25T05:08:23;8.00;99.90
30572;DHT22;17348;50.948;10.696;2023-04-25T05:11:27;8.10;99.90
30572;DHT22;17348;50.948;10.696;2023-04-25T05:14:29;8.00;99.90
30572;DHT22;17348;50.948;10.696;2023-04-25T05:17:33;7.90;99.90
30572;DHT22;17348;50.948;10.696;2023-04-25T05:20:35;8.40;99.90
30572;DHT22;17348;50.948;10.696;2023-04-25T05:23:38;9.30;99.90
30572;DHT22;17348;50.948;10.696;2023-04-25T05:26:42;10.20;99.90
30572;DHT22;17348;50.948;10.696;2023-04-25T05:29:44;11.20;99.90
30572;DHT22;17348;50.948;10.696;2023-04-25T05:32:46;12.20;99.90
30572;DHT22;17348;50.948;10.696;2023-04-25T05:35:49;11.70;99.90
30572;DHT22;17348;50.948;10.696;2023-04-25T05:38:52;11.60;99.90
30572;DHT22;17348;50.948;10.696;2023-04-25T05:41:55;12.40;99.90
30572;DHT22;17348;50.948;10.696;2023-04-25T05:44:58;13.90;99.90
30572;DHT22;17348;50.948;10.696;2023-04-25T05:48:00;15.50;99.90
30572;DHT22;17348;50.948;10.696;2023-04-25T05:51:03;16.50;99.90
30572;DHT22;17348;50.948;10.696;2023-04-25T05:54:06;15.30;99.90
30572;DHT22;17348;50.948;10.696;2023-04-25T05:57:19;14.30;99.90
30572;DHT22;17348;50.948;10.696;2023-04-25T06:00:21;14.80;99.90
30572;DHT22;17348;50.948;10.696;2023-04-25T06:03:26;13.70;99.90
30572;DHT22;17348;50.948;10.696;2023-04-25T06:06:29;12.30;99.90
30572;DHT22;17348;50.948;10.696;2023-04-25T06:09:31;11.10;99.90
30572;DHT22;17348;50.948;10.696;2023-04-25T06:12:35;10.60;99.90
30572;DHT22;17348;50.948;10.696;2023-04-25T06:15:37;10.30;99.90
30572;DHT22;17348;50.948;10.696;2023-04-25T06:18:39;10.60;99.90
30572;DHT22;17348;50.948;10.696;2023-04-25T06:21:43;10.40;99.90
30572;DHT22;17348;50.948;10.696;2023-04-25T06:24:46;10.20;99.90
30572;DHT22;17348;50.948;10.696;2023-04-25T06:27:49;10.10;99.90
30572;DHT22;17348;50.948;10.696;2023-04-25T06:30:52;9.70;99.90
30572;DHT22;17348;50.948;10.696;2023-04-25T06:33:54;9.60;99.90
30572;DHT22;17348;50.948;10.696;2023-04-25T06:36:56;9.50;99.90
30572;DHT22;17348;50.948;10.696;2023-04-25T06:39:58;9.20;99.90
30572;DHT22;17348;50.948;10.696;2023-04-25T06:43:02;9.20;99.90
30572;DHT22;17348;50.948;10.696;2023-04-25T06:46:05;9.20;99.90
30572;DHT22;17348;50.948;10.696;2023-04-25T06:49:07;9.50;99.90
30572;DHT22;17348;50.948;10.696;2023-04-25T06:52:09;10.60;99.90
30572;DHT22;17348;50.948;10.696;2023-04-25T06:55:12;11.60;99.90
30572;DHT22;17348;50.948;10.696;2023-04-25T06:58:16;11.60;99.90
30572;DHT22;17348;50.948;10.696;2023-04-25T07:01:18;11.40;99.90
30572;DHT22;17348;50.948;10.696;2023-04-25T07:04:23;11.00;99.90
30572;DHT22;17348;50.948;10.696;2023-04-25T07:07:26;10.40;99.90
30572;DHT22;17348;50.948;10.696;2023-04-25T07:10:28;10.20;99.90
30572;DHT22;17348;50.948;10.696;2023-04-25T07:13:32;10.40;99.90
30572;DHT22;17348;50.948;10.696;2023-04-25T07:16:34;10.30;99.90
30572;DHT22;17348;50.948;10.696;2023-04-25T07:19:36;10.10;99.90
30572;DHT22;17348;50.948;10.696;2023-04-25T07:22:40;9.80;99.90
30572;DHT22;17348;50.948;10.696;2023-04-25T07:25:43;9.70;99.90
30572;DHT22;17348;50.948;10.696;2023-04-25T07:28:47;9.60;99.90
30572;DHT22;17348;50.948;10.696;2023-04-25T07:31:51;9.40;99.90
30572;DHT22;17348;50.948;10.696;2023-04-25T07:34:54;9.40;99.90
30572;DHT22;17348;50.948;10.696;2023-04-25T07:37:56;9.30;99.90
30572;DHT22;17348;50.948;10.696;2023-04-25T07:41:00;9.20;99.90
30572;DHT22;17348;50.948;10.696;2023-04-25T07:44:03;9.00;99.90
30572;DHT22;17348;50.948;10.696;2023-04-25T07:47:06;8.80;99.90
30572;DHT22;17348;50.948;10.696;2023-04-25T07:50:09;8.90;99.90
30572;DHT22;17348;50.948;10.696;2023-04-25T07:53:12;8.90;99.90
30572;DHT22;17348;50.948;10.696;2023-04-25T07:56:14;8.70;99.90
30572;DHT22;17348;50.948;10.696;2023-04-25T07:59:18;8.60;99.90
30572;DHT22;17348;50.948;10.696;2023-04-25T08:02:20;8.60;99.90
30572;DHT22;17348;50.948;10.696;2023-04-25T08:05:22;8.60;99.90
30572;DHT22;17348;50.948;10.696;2023-04-25T08:08:25;8.50;99.90
30572;DHT22;17348;50.948;10.696;2023-04-25T08:11:27;8.30;99.90
30572;DHT22;17348;50.948;10.696;2023-04-25T08:14:31;8.20;99.90
30572;DHT22;17348;50.948;10.696;2023-04-25T08:17:36;8.10;99.90
30572;DHT22;17348;50.948;10.696;2023-04-25T08:20:39;8.00;99.90
30572;DHT22;17348;50.948;10.696;2023-04-25T08:23:41;8.00;99.90
30572;DHT22;17348;50.948;10.696;2023-04-25T08:26:43;8.00;99.90
30572;DHT22;17348;50.948;10.696;2023-04-25T08:29:47;8.00;99.90
30572;DHT22;17348;50.948;10.696;2023-04-25T08:32:50;8.00;99.90
30572;DHT22;17348;50.948;10.696;2023-04-25T08:35:52;8.00;99.90
30572;DHT22;17348;50.948;10.696;2023-04-25T08:38:54;8.00;99.90
30572;DHT22;17348;50.948;10.696;2023-04-25T08:41:57;7.90;99.90
30572;DHT22;17348;50.948;10.696;2023-04-25T08:45:01;7.90;99.90
30572;DHT22;17348;50.948;10.696;2023-04-25T08:48:04;8.00;99.90
30572;DHT22;17348;50.948;10.696;2023-04-25T08:51:10;7.90;99.90
30572;DHT22;17348;50.948;10.696;2023-04-25T08:54:14;7.90;99.90
30572;DHT22;17348;50.948;10.696;2023-04-25T08:57:17;7.90;99.90
30572;DHT22;17348;50.948;10.696;2023-04-25T09:00:22;8.00;99.90
30572;DHT22;17348;50.948;10.696;2023-04-25T09:03:24;7.90;99.90
30572;DHT22;17348;50.948;10.696;2023-04-25T09:06:27;7.90;99.90
30572;DHT22;17348;50.948;10.696;2023-04-25T09:09:31;7.90;99.90
30572;DHT22;17348;50.948;10.696;2023-04-25T09:12:35;8.00;99.90
30572;DHT22;17348;50.948;10.696;2023-04-25T09:15:48;8.10;99.90
30572;DHT22;17348;50.948;10.696;2023-04-25T09:18:52;8.30;99.90
30572;DHT22;17348;50.948;10.696;2023-04-25T09:21:55;8.30;99.90
30572;DHT22;17348;50.948;10.696;2023-04-25T09:24:57;8.30;99.90
30572;DHT22;17348;50.948;10.696;2023-04-25T09:28:04;8.30;99.90
30572;DHT22;17348;50.948;10.696;2023-04-25T09:31:09;8.30;99.90
30572;DHT22;17348;50.948;10.696;2023-04-25T09:34:14;8.30;99.90
30572;DHT22;17348;50.948;10.696;2023-04-25T09:37:18;8.40;99.90
30572;DHT22;17348;50.948;10.696;2023-04-25T09:40:21;8.60;99.90
30572;DHT22;17348;50.948;10.696;2023-04-25T09:43:24;8.70;99.90
30572;DHT22;17348;50.948;10.696;2023-04-25T09:46:34;8.80;99.90
30572;DHT22;17348;50.948;10.696;2023-04-25T09:49:39;8.90;99.90
30572;DHT22;17348;50.948;10.696;2023-04-25T09:52:43;9.00;99.90
30572;DHT22;17348;50.948;10.696;2023-04-25T09:55:46;9.00;99.90
30572;DHT22;17348;50.948;10.696;2023-04-25T09:58:50;9.10;99.90
30572;DHT22;17348;50.948;10.696;2023-04-25T10:01:57;9.30;99.90
30572;DHT22;17348;50.948;10.696;2023-04-25T10:05:01;9.40;99.90
30572;DHT22;17348;50.948;10.696;2023-04-25T10:08:07;9.30;99.90
30572;DHT22;17348;50.948;10.696;2023-04-25T10:11:10;9.00;99.90
30572;DHT22;17348;50.948;10.696;2023-04-25T10:14:16;8.60;99.90
30572;DHT22;17348;50.948;10.696;2023-04-25T10:17:20;8.20;99.90
30572;DHT22;17348;50.948;10.696;2023-04-25T10:20:22;8.10;99.90
30572;DHT22;17348;50.948;10.696;2023-04-25T10:23:25;8.10;99.90
30572;DHT22;17348;50.948;10.696;2023-04-25T10:26:28;8.10;99.90
30572;DHT22;17348;50.948;10.696;2023-04-25T10:29:31;8.20;99.90
30572;DHT22;17348;50.948;10.696;2023-04-25T10:32:35;8.20;99.90
30572;DHT22;17348;50.948;10.696;2023-04-25T10:35:38;8.50;99.90
30572;DHT22;17348;50.948;10.696;2023-04-25T10:38:43;8.80;99.90
30572;DHT22;17348;50.948;10.696;2023-04-25T10:41:47;9.10;99.90
30572;DHT22;17348;50.948;10.696;2023-04-25T10:45:01;9.40;99.90
30572;DHT22;17348;50.948;10.696;2023-04-25T10:48:25;9.60;99.90
30572;DHT22;17348;50.948;10.696;2023-04-25T10:51:28;9.80;99.90
30572;DHT22;17348;50.948;10.696;2023-04-25T10:54:31;9.90;99.90
30572;DHT22;17348;50.948;10.696;2023-04-25T10:57:37;9.90;99.90
30572;DHT22;17348;50.948;10.696;2023-04-25T11:00:40;9.70;99.90
30572;DHT22;17348;50.948;10.696;2023-04-25T11:03:44;9.60;99.90
30572;DHT22;17348;50.948;10.696;2023-04-25T11:07:00;9.50;99.90
30572;DHT22;17348;50.948;10.696;2023-04-25T11:10:10;9.40;99.90
30572;DHT22;17348;50.948;10.696;2023-04-25T11:13:13;9.40;99.90
30572;DHT22;17348;50.948;10.696;2023-04-25T11:16:15;9.40;99.90
30572;DHT22;17348;50.948;10.696;2023-04-25T11:19:20;9.50;99.90
30572;DHT22;17348;50.948;10.696;2023-04-25T11:22:23;9.50;99.90
30572;DHT22;17348;50.948;10.696;2023-04-25T11:25:31;9.60;99.90
30572;DHT22;17348;50.948;10.696;2023-04-25T11:28:33;9.50;99.90
30572;DHT22;17348;50.948;10.696;2023-04-25T11:31:35;9.40;99.90
30572;DHT22;17348;50.948;10.696;2023-04-25T11:34:39;9.30;99.90
30572;DHT22;17348;50.948;10.696;2023-04-25T11:37:44;9.40;99.90
30572;DHT22;17348;50.948;10.696;2023-04-25T11:40:51;9.50;99.90
30572;DHT22;17348;50.948;10.696;2023-04-25T11:43:54;9.70;99.90
30572;DHT22;17348;50.948;10.696;2023-04-25T11:46:57;9.90;99.90
30572;DHT22;17348;50.948;10.696;2023-04-25T11:50:00;10.40;99.90
30572;DHT22;17348;50.948;10.696;2023-04-25T11:53:03;10.80;99.90
30572;DHT22;17348;50.948;10.696;2023-04-25T11:56:09;10.90;99.90
30572;DHT22;17348;50.948;10.696;2023-04-25T11:59:12;10.80;99.90
30572;DHT22;17348;50.948;10.696;2023-04-25T12:02:26;10.60;99.90
30572;DHT22;17348;50.948;10.696;2023-04-25T12:05:31;10.40;99.90
30572;DHT22;17348;50.948;10.696;2023-04-25T12:08:34;10.20;99.90
30572;DHT22;17348;50.948;10.696;2023-04-25T12:11:42;10.00;99.90
30572;DHT22;17348;50.948;10.696;2023-04-25T12:14:47;9.90;99.90
30572;DHT22;17348;50.948;10.696;2023-04-25T12:17:50;10.10;99.90
30572;DHT22;17348;50.948;10.696;2023-04-25T12:20:55;10.30;99.90
30572;DHT22;17348;50.948;10.696;2023-04-25T12:24:11;10.20;99.90
30572;DHT22;17348;50.948;10.696;2023-04-25T12:27:16;10.20;99.90
30572;DHT22;17348;50.948;10.696;2023-04-25T12:30:21;10.20;99.90
30572;DHT22;17348;50.948;10.696;2023-04-25T12:33:23;10.40;99.90
30572;DHT22;17348;50.948;10.696;2023-04-25T12:36:27;10.40;99.90
30572;DHT22;17348;50.948;10.696;2023-04-25T12:39:30;10.50;99.90
30572;DHT22;17348;50.948;10.696;2023-04-25T12:42:32;10.50;99.90
30572;DHT22;17348;50.948;10.696;2023-04-25T12:45:34;10.60;99.90
30572;DHT22;17348;50.948;10.696;2023-04-25T12:48:37;10.90;99.90
30572;DHT22;17348;50.948;10.696;2023-04-25T12:51:40;11.20;99.90
30572;DHT22;17348;50.948;10.696;2023-04-25T12:54:43;11.20;99.90
30572;DHT22;17348;50.948;10.696;2023-04-25T12:57:46;11.30;99.90
30572;DHT22;17348;50.948;10.696;2023-04-25T13:00:48;11.40;99.90
30572;DHT22;17348;50.948;10.696;2023-04-25T13:03:51;11.30;99.90
30572;DHT22;17348;50.948;10.696;2023-04-25T13:06:54;11.20;99.90
30572;DHT22;17348;50.948;10.696;2023-04-25T13:09:57;11.10;99.90
30572;DHT22;17348;50.948;10.696;2023-04-25T13:13:00;10.90;99.90
30572;DHT22;17348;50.948;10.696;2023-04-25T13:16:04;10.70;99.90
30572;DHT22;17348;50.948;10.696;2023-04-25T13:19:06;10.60;99.90
30572;DHT22;17348;50.948;10.696;2023-04-25T13:22:13;10.50;99.90
30572;DHT22;17348;50.948;10.696;2023-04-25T13:25:17;10.60;99.90
30572;DHT22;17348;50.948;10.696;2023-04-25T13:28:20;10.60;99.90
30572;DHT22;17348;50.948;10.696;2023-04-25T13:31:22;10.40;99.90
30572;DHT22;17348;50.948;10.696;2023-04-25T13:34:24;10.40;99.90
30572;DHT22;17348;50.948;10.696;2023-04-25T13:37:28;10.40;99.90
30572;DHT22;17348;50.948;10.696;2023-04-25T13:40:36;10.50;99.90
30572;DHT22;17348;50.948;10.696;2023-04-25T13:43:38;10.70;99.90
30572;DHT22;17348;50.948;10.696;2023-04-25T13:46:40;10.70;99.90
30572;DHT22;17348;50.948;10.696;2023-04-25T13:49:42;10.80;99.90
30572;DHT22;17348;50.948;10.696;2023-04-25T13:52:46;10.70;99.70
30572;DHT22;17348;50.948;10.696;2023-04-25T13:55:49;10.80;98.50
30572;DHT22;17348;50.948;10.696;2023-04-25T13:58:52;10.60;97.90
30572;DHT22;17348;50.948;10.696;2023-04-25T14:01:54;10.50;99.00
30572;DHT22;17348;50.948;10.696;2023-04-25T14:04:56;10.60;98.60
30572;DHT22;17348;50.948;10.696;2023-04-25T14:08:00;10.60;99.20
30572;DHT22;17348;50.948;10.696;2023-04-25T14:11:02;10.60;99.10
30572;DHT22;17348;50.948;10.696;2023-04-25T14:14:05;10.60;98.50
30572;DHT22;17348;50.948;10.696;2023-04-25T14:17:08;10.60;99.40
30572;DHT22;17348;50.948;10.696;2023-04-25T14:20:10;10.70;99.30
30572;DHT22;17348;50.948;10.696;2023-04-25T14:23:14;10.80;99.60
30572;DHT22;17348;50.948;10.696;2023-04-25T14:26:18;11.00;98.60
30572;DHT22;17348;50.948;10.696;2023-04-25T14:29:20;11.10;98.00
30572;DHT22;17348;50.948;10.696;2023-04-25T14:32:23;10.90;97.80
30572;DHT22;17348;50.948;10.696;2023-04-25T14:35:25;10.90;98.10
30572;DHT22;17348;50.948;10.696;2023-04-25T14:38:29;10.80;98.10
30572;DHT22;17348;50.948;10.696;2023-04-25T14:41:31;10.80;98.70
30572;DHT22;17348;50.948;10.696;2023-04-25T14:44:33;10.70;97.70
30572;DHT22;17348;50.948;10.696;2023-04-25T14:47:36;10.60;98.00
30572;DHT22;17348;50.948;10.696;2023-04-25T14:50:38;10.90;98.00
30572;DHT22;17348;50.948;10.696;2023-04-25T14:53:42;10.70;97.40
30572;DHT22;17348;50.948;10.696;2023-04-25T14:56:45;10.70;98.10
30572;DHT22;17348;50.948;10.696;2023-04-25T14:59:47;10.60;98.00
30572;DHT22;17348;50.948;10.696;2023-04-25T15:02:50;10.40;98.90
30572;DHT22;17348;50.948;10.696;2023-04-25T15:05:52;10.50;99.30
30572;DHT22;17348;50.948;10.696;2023-04-25T15:08:56;10.50;99.50
30572;DHT22;17348;50.948;10.696;2023-04-25T15:11:59;10.40;99.00
30572;DHT22;17348;50.948;10.696;2023-04-25T15:15:01;10.40;99.50
30572;DHT22;17348;50.948;10.696;2023-04-25T15:18:04;10.30;99.90
30572;DHT22;17348;50.948;10.696;2023-04-25T15:21:06;10.40;99.90
30572;DHT22;17348;50.948;10.696;2023-04-25T15:24:10;10.50;99.90
30572;DHT22;17348;50.948;10.696;2023-04-25T15:27:13;10.50;99.90
30572;DHT22;17348;50.948;10.696;2023-04-25T15:30:16;10.60;99.90
30572;DHT22;17348;50.948;10.696;2023-04-25T15:33:18;10.60;99.90
30572;DHT22;17348;50.948;10.696;2023-04-25T15:36:21;10.40;99.00
30572;DHT22;17348;50.948;10.696;2023-04-25T15:39:24;10.30;98.60
30572;DHT22;17348;50.948;10.696;2023-04-25T15:42:27;10.10;98.70
30572;DHT22;17348;50.948;10.696;2023-04-25T15:45:29;10.00;98.70
30572;DHT22;17348;50.948;10.696;2023-04-25T15:48:33;9.80;99.00
30572;DHT22;17348;50.948;10.696;2023-04-25T15:51:36;9.70;99.70
30572;DHT22;17348;50.948;10.696;2023-04-25T15:54:39;9.60;99.90
30572;DHT22;17348;50.948;10.696;2023-04-25T15:57:42;9.50;99.90
30572;DHT22;17348;50.948;10.696;2023-04-25T16:00:44;9.50;99.70
30572;DHT22;17348;50.948;10.696;2023-04-25T16:03:49;9.50;99.80
30572;DHT22;17348;50.948;10.696;2023-04-25T16:06:52;9.60;99.90
30572;DHT22;17348;50.948;10.696;2023-04-25T16:09:56;9.70;99.90
30572;DHT22;17348;50.948;10.696;2023-04-25T16:12:58;9.80;99.90
30572;DHT22;17348;50.948;10.696;2023-04-25T16:16:01;9.80;99.90
30572;DHT22;17348;50.948;10.696;2023-04-25T16:19:03;9.70;99.90
30572;DHT22;17348;50.948;10.696;2023-04-25T16:22:05;9.60;99.90
30572;DHT22;17348;50.948;10.696;2023-04-25T16:25:11;9.70;99.90
30572;DHT22;17348;50.948;10.696;2023-04-25T16:28:13;9.70;99.90
30572;DHT22;17348;50.948;10.696;2023-04-25T16:31:15;9.70;99.90
30572;DHT22;17348;50.948;10.696;2023-04-25T16:34:18;9.80;99.90
30572;DHT22;17348;50.948;10.696;2023-04-25T16:37:22;9.80;99.90
30572;DHT22;17348;50.948;10.696;2023-04-25T16:40:27;9.90;99.90
30572;DHT22;17348;50.948;10.696;2023-04-25T16:43:29;10.00;99.90
30572;DHT22;17348;50.948;10.696;2023-04-25T16:46:31;10.00;99.90
30572;DHT22;17348;50.948;10.696;2023-04-25T16:49:34;10.20;99.90
30572;DHT22;17348;50.948;10.696;2023-04-25T16:52:36;10.30;99.90
30572;DHT22;17348;50.948;10.696;2023-04-25T16:55:40;10.40;99.90
30572;DHT22;17348;50.948;10.696;2023-04-25T16:58:42;10.20;99.70
30572;DHT22;17348;50.948;10.696;2023-04-25T17:01:45;10.00;99.90
30572;DHT22;17348;50.948;10.696;2023-04-25T17:04:47;9.90;99.90
30572;DHT22;17348;50.948;10.696;2023-04-25T17:07:49;9.70;99.90
30572;DHT22;17348;50.948;10.696;2023-04-25T17:10:53;9.70;99.90
30572;DHT22;17348;50.948;10.696;2023-04-25T17:13:55;9.70;99.90
30572;DHT22;17348;50.948;10.696;2023-04-25T17:16:58;9.70;99.90
30572;DHT22;17348;50.948;10.696;2023-04-25T17:20:00;9.60;99.90
30572;DHT22;17348;50.948;10.696;2023-04-25T17:23:05;9.50;99.90
30572;DHT22;17348;50.948;10.696;2023-04-25T17:26:09;9.40;99.90
30572;DHT22;17348;50.948;10.696;2023-04-25T17:29:11;9.30;99.90
30572;DHT22;17348;50.948;10.696;2023-04-25T17:32:15;9.20;99.90
30572;DHT22;17348;50.948;10.696;2023-04-25T17:35:17;9.10;99.90
30572;DHT22;17348;50.948;10.696;2023-04-25T17:38:20;9.00;99.90
30572;DHT22;17348;50.948;10.696;2023-04-25T17:41:23;9.00;99.90
30572;DHT22;17348;50.948;10.696;2023-04-25T17:44:26;8.90;99.90
30572;DHT22;17348;50.948;10.696;2023-04-25T17:47:29;8.90;99.90
30572;DHT22;17348;50.948;10.696;2023-04-25T17:50:32;8.80;99.90
30572;DHT22;17348;50.948;10.696;2023-04-25T17:53:34;8.80;99.90
30572;DHT22;17348;50.948;10.696;2023-04-25T17:56:38;8.70;99.90
30572;DHT22;17348;50.948;10.696;2023-04-25T17:59:41;8.70;99.90
30572;DHT22;17348;50.948;10.696;2023-04-25T18:02:43;8.60;99.90
30572;DHT22;17348;50.948;10.696;2023-04-25T18:05:47;8.60;99.90
30572;DHT22;17348;50.948;10.696;2023-04-25T18:08:49;8.60;99.90
30572;DHT22;17348;50.948;10.696;2023-04-25T18:11:53;8.50;99.90
30572;DHT22;17348;50.948;10.696;2023-04-25T18:14:56;8.40;99.90
30572;DHT22;17348;50.948;10.696;2023-04-25T18:17:58;8.30;99.90
30572;DHT22;17348;50.948;10.696;2023-04-25T18:21:03;8.30;99.90
30572;DHT22;17348;50.948;10.696;2023-04-25T18:24:08;8.20;99.90
30572;DHT22;17348;50.948;10.696;2023-04-25T18:27:13;8.10;99.90
30572;DHT22;17348;50.948;10.696;2023-04-25T18:30:16;8.10;99.90
30572;DHT22;17348;50.948;10.696;2023-04-25T18:33:19;8.00;99.90
30572;DHT22;17348;50.948;10.696;2023-04-25T18:36:22;8.00;99.90
30572;DHT22;17348;50.948;10.696;2023-04-25T18:39:25;7.90;99.90
30572;DHT22;17348;50.948;10.696;2023-04-25T18:42:29;7.90;99.90
30572;DHT22;17348;50.948;10.696;2023-04-25T18:45:31;8.00;99.90
30572;DHT22;17348;50.948;10.696;2023-04-25T18:48:33;7.90;99.90
30572;DHT22;17348;50.948;10.696;2023-04-25T18:51:36;7.90;99.90
30572;DHT22;17348;50.948;10.696;2023-04-25T18:54:38;7.80;99.90
30572;DHT22;17348;50.948;10.696;2023-04-25T18:57:42;7.70;99.90
30572;DHT22;17348;50.948;10.696;2023-04-25T19:00:44;7.70;99.90
30572;DHT22;17348;50.948;10.696;2023-04-25T19:03:47;7.60;99.90
30572;DHT22;17348;50.948;10.696;2023-04-25T19:06:55;7.60;99.90
30572;DHT22;17348;50.948;10.696;2023-04-25T19:09:57;7.50;99.90
30572;DHT22;17348;50.948;10.696;2023-04-25T19:13:01;7.50;99.90